Terminal Aerodrome Forecast
Issued by NWS

Home | Current Version | Previous Version | Graphics & Text | Print | Product List | Glossary On
Versions: 1 2 3 4 5 6 7 8 9 10 11 12
869
FTUS43 KICT 200520
TAFCNU
TAF
KCNU 200520Z 2006/2106 18010KT P6SM SCT250 WS020/21045KT
      TEMPO 2010/2014 5SM BR SCT010
     FM201500 21014KT P6SM SCT250
     FM201800 18006KT P6SM SCT250
     FM202100 12006KT P6SM SCT250=

USA.gov is the U.S. government's official web portal to all federal, state and local government web resources and services.